Tiempo atmosférico en la estación meteorológica de Autilla del Pino, Palencia (874 m.)



Fecha
DESCASC
Temp. máxima en grados centígrados (hora)
DESCASC
Temp. mínima en grados centígrados (hora)
DESCASC
Temp. media en grados centígrados
DESCASC
Racha de viento máxima en m/sg (hora)
DESCASC
Velocidad máxima media en intervalos de 10 minutos(hora)
DESCASC
Precipitaciones diarias en mm
DESCASC
Precipitaciones de 00:00 a 06:00 en mm
DESCASC
Precipitaciones de 06:00 a 12:00 en mm
DESCASC
Precipitaciones de 12:00 a 18:00 en mm
DESCASC
Precipitaciones de 18:00 a 24:00 en mm
DESCASC
06-12-2018 7.1 (15:40) 2.6 (01:40) 4.8 5.28 (01:00) 4.17 (01:00) 0 0 0 0 0
05-12-2018 9.8 (16:10) 2.6 (02:40) 6.2 7.5 (14:30) 5.28 (14:30) 0 0 0 0 0
04-12-2018 12.5 (15:50) 4.6 (23:59) 8.5 3.61 (11:30) 2.22 (23:00) 0.2 0.2 0 0 0
03-12-2018 10.3 (16:30) 3.6 (00:00) 7 8.61 (11:10) 6.39 (11:10) 0 0 0 0 0
02-12-2018 9.7 (16:20) 2.6 (00:00) 6.1 12.22 (22:30) 6.67 (14:40) 0 0 0 0 0
01-12-2018 8.9 (15:50) 0.7 (00:00) 4.8 9.17 (12:30) 6.94 (12:30) 0 0 0 0 0
30-11-2018 7.9 (16:10) 0.6 (00:00) 4.3 7.22 (14:50) 5.28 (11:50) 0 0 0 0 0
29-11-2018 8.7 (11:30) -1.6 (-00:0) 3.5 12.78 (13:50) 7.5 (19:10) 3.8 0 0 0.8 3
28-11-2018 10.9 (14:40) -0.6 (-00:0) 5.1 5.83 (10:50) 4.72 (15:10) 0 0 0 0 0
27-11-2018 8.1 (15:40) -0.8 (-00:0) 3.7 5.83 (10:00) 4.17 (21:10) 0 0 0 0 0
26-11-2018 9.4 (14:30) 1.1 (23:50) 5.2 15.83 (03:30) 11.39 (03:30) 4 4 0 0 0
25-11-2018 9.2 (14:10) 4.1 (00:00) 6.6 12.78 (05:10) 9.44 (05:10) 3 1.3 0.1 0 1.6
24-11-2018 9.2 (15:00) 3.2 (00:00) 6.2 11.67 (23:40) 9.17 (22:00) 0.3 0 0 0 0.3
23-11-2018 6.9 (16:10) 2.9 (00:00) 4.9 10 (13:10) 7.78 (11:10) 6.9 6.9 0 0 0
22-11-2018 8.1 (14:30) 1.3 (00:00) 4.7 10 (13:30) 7.22 (13:30) 1.8 0 0.8 0 1
21-11-2018 9.5 (13:50) 3.3 (00:00) 6.4 13.89 (14:20) 10.28 (14:20) 3.4 1.5 0.8 0.2 0.9
20-11-2018 7.5 (01:30) 4.6 (00:00) 6 13.33 (13:20) 9.72 (13:40) 13.1 0.1 5 8 0
19-11-2018 11.3 (15:40) 5.4 (00:00) 8.4 13.89 (06:10) 6.94 (02:50) -- -- -- -- 0
18-11-2018 11.5 (15:40) 2.7 (00:00) 7.1 9.72 (23:50) 6.67 (23:50) -- -- -- -- --
17-11-2018 15.8 (15:30) 5.3 (00:00) 10.6 7.22 (09:50) 5.56 (09:50) -- -- -- -- --
16-11-2018 14.4 (14:40) 5.6 (00:00) 10 7.5 (02:50) 6.11 (02:50) -- -- -- -- --
15-11-2018 16.1 (15:30) 6.3 (00:00) 11.2 5.28 (06:50) 4.72 (23:50) -- -- -- -- --
14-11-2018 12.2 (17:10) 5.3 (00:00) 8.8 6.67 (04:50) 5 (04:20) -- -- -- -- --
13-11-2018 13.1 (16:40) 6 (00:00) 9.6 15.83 (08:20) 5.28 (08:10) -- 0 -- -- --
12-11-2018 9.2 (13:40) 5.9 (00:00) 7.5 7.5 (01:30) 5 (01:30) 0 0 0 0 0
11-11-2018 11.9 (12:20) 6.7 (00:00) 9.3 11.67 (12:50) 8.89 (12:30) 0 0 0 0 0
10-11-2018 12.3 (15:50) 7.2 (00:00) 9.8 18.33 (16:00) 13.61 (16:00) 0 0 0 0 0
09-11-2018 8.2 (12:50) 1.9 (00:00) 5 12.22 (23:00) 9.17 (23:30) 0 0 0 0 0

Gráficas

Temp. máximas Temp. mínimas Temp. medias Precipitaciones Rachas de viento máximas Velocidades máximas media en intervalos de 10 minutos

Datos horarios

Fecha y hora oficial Temperatura (ºC) Velocidad del viento (km/h) Dirección del viento Racha (km/h) Dirección de racha Precipitación (mm) Presión (hPa) Tendencia (hPa) Humedad (%)
2018-12-08 23:00:00 2.8 13 Sudoeste 39 Sudoeste 0 -- -- 99
2018-12-08 22:00:00 3.1 14 Sudoeste 19 Sudoeste 0 -- -- 99
2018-12-08 21:00:00 3.4 9 Sudoeste 13 Sudoeste 0 -- -- 99
2018-12-08 20:00:00 4.9 3 Oeste 8 Oeste 0 -- -- 98
2018-12-08 19:00:00 6.5 0 Calma 2 Sudoeste 0 -- -- 95
2018-12-08 18:00:00 7.3 3 Sudoeste 7 Oeste 0 -- -- 92
2018-12-08 17:00:00 9.2 7 Oeste 12 Oeste 0 -- -- 81
2018-12-08 16:00:00 8.6 6 Noroeste 14 Oeste 0 -- -- 81
2018-12-08 15:00:00 8.1 10 Oeste 16 Oeste 0 -- -- 84
2018-12-08 14:00:00 7.5 13 Noroeste 20 Noroeste 0 -- -- 86
2018-12-08 13:00:00 6.8 15 Oeste 23 Oeste 0 -- -- 89
2018-12-08 12:00:00 5.9 12 Sudoeste 16 Sudoeste 0 -- -- 93
2018-12-08 11:00:00 4.1 11 Oeste 16 Noroeste 0 -- -- 99
2018-12-08 10:00:00 2.3 9 Oeste 18 Noroeste 0 -- -- 99
2018-12-08 09:00:00 1.7 12 Oeste 23 Oeste 0 -- -- 99
2018-12-08 08:00:00 1.9 17 Oeste 21 Oeste 0 -- -- 99
2018-12-08 07:00:00 2.4 14 Oeste 23 Noroeste 0 -- -- 99
2018-12-08 06:00:00 3.2 20 Oeste 26 Oeste 0 -- -- 99
2018-12-08 05:00:00 3.4 18 Oeste 22 Oeste 0 -- -- 99
2018-12-08 04:00:00 3.8 18 Oeste 24 Oeste 0 -- -- 99
2018-12-08 03:00:00 4.4 17 Oeste 23 Oeste 0 -- -- 99
2018-12-08 02:00:00 5.2 18 Oeste 26 Oeste 0 -- -- 99
2018-12-08 01:00:00 5.9 19 Oeste 27 Oeste 0 -- -- 99
2018-12-08 00:00:00 6 19 Oeste 31 Oeste 0 -- -- 99
2018-12-07 23:00:00 6.3 18 Oeste 27 Oeste 0 -- -- 99
2018-12-07 22:00:00 6 15 Oeste 21 Oeste 0 -- -- 99
2018-12-07 21:00:00 5.1 11 Sudoeste 15 Sudoeste 0 -- -- 99
2018-12-07 20:00:00 4.8 6 Sudeste 17 Sudoeste 0 -- -- 99
2018-12-07 19:00:00 5.1 6 Sudoeste 13 Sudoeste 0 -- -- 99
2018-12-07 18:00:00 5.7 9 Oeste 23 Oeste 0 -- -- 99
2018-12-07 17:00:00 5.3 17 Oeste 25 Oeste 0 -- -- 99
2018-12-07 16:00:00 5.7 17 Oeste 24 Oeste 0 -- -- 99
2018-12-07 15:00:00 6.3 17 Oeste 24 Oeste 0 -- -- 99
2018-12-07 14:00:00 5.8 19 Sudoeste 24 Sudoeste 0 -- -- 99
2018-12-07 13:00:00 5.2 13 Oeste 22 Oeste 0 -- -- 99
2018-12-07 12:00:00 4.7 14 Sudoeste 23 Oeste 0 -- -- 99
2018-12-07 11:00:00 4.2 15 Sudoeste 22 Sudoeste 0 -- -- 99
2018-12-07 10:00:00 4.3 12 Sudoeste 20 Sudoeste 0 -- -- 99
2018-12-07 09:00:00 4.4 13 Sudoeste 19 Oeste 0 -- -- 99
2018-12-07 08:00:00 4.2 11 Sudoeste 17 Sudoeste 0 -- -- 99
2018-12-07 07:00:00 4.1 12 Sudoeste 18 Sudoeste 0 -- -- 99
2018-12-07 06:00:00 3.8 13 Sudoeste 17 Sudoeste 0 -- -- 99
2018-12-07 05:00:00 4.3 11 Sudoeste 17 Oeste 0 -- -- 99
2018-12-07 04:00:00 4.3 12 Oeste 18 Oeste 0 -- -- 99
2018-12-07 03:00:00 4.2 8 Sudoeste 14 Sudoeste 0 -- -- 99
2018-12-07 02:00:00 4.2 7 Oeste 15 Oeste 0 -- -- 99
2018-12-07 01:00:00 4.2 9 Oeste 14 Oeste 0 -- -- 99
2018-12-07 00:00:00 4.3 4 Sudoeste 12 Sudoeste 0 -- -- 99
2018-12-06 23:00:00 4.6 5 Sur 8 Sudoeste 0 -- -- 99
2018-12-06 22:00:00 4.6 0 Calma 8 Sudeste 0 -- -- 99
2018-12-06 21:00:00 4.7 2 Sur 7 Sur 0 -- -- 99
2018-12-06 20:00:00 4.6 4 Sur 13 Sudoeste 0 -- -- 99
2018-12-06 19:00:00 4.6 9 Sudoeste 12 Sudoeste 0 -- -- 99
2018-12-06 18:00:00 5.4 8 Sur 11 Sudoeste 0 -- -- 99
2018-12-06 17:00:00 6.6 5 Sudoeste 14 Sudoeste 0 -- -- 99
2018-12-06 16:00:00 6.9 8 Sudoeste 13 Sudoeste 0 -- -- 99
2018-12-06 15:00:00 6.6 6 Oeste 14 Oeste 0 -- -- 99
2018-12-06 14:00:00 5.9 7 Oeste 12 Oeste 0 -- -- 99
2018-12-06 13:00:00 5.5 4 Sudoeste 11 Noroeste 0 -- -- 99
2018-12-06 12:00:00 4.8 3 Sudoeste 11 Sudoeste 0 -- -- 99
2018-12-06 11:00:00 4.6 5 Oeste 11 Oeste 0 -- -- 99
2018-12-06 10:00:00 4.1 6 Sudoeste 11 Sudoeste 0 -- -- 99
2018-12-06 09:00:00 4 6 Oeste 11 Oeste 0 -- -- 99
2018-12-06 08:00:00 4.2 6 Noroeste 11 Oeste 0 -- -- 99
2018-12-06 07:00:00 4.4 6 Oeste 12 Oeste 0 -- -- 99
2018-12-06 06:00:00 4.2 5 Sudoeste 9 Sudoeste 0 -- -- 99
2018-12-06 05:00:00 3.9 5 Sudoeste 10 Sudoeste 0 -- -- 99
2018-12-06 04:00:00 3.2 5 Sudoeste 14 Sudoeste 0 -- -- 99
2018-12-06 03:00:00 4.2 9 Sudoeste 16 Sudoeste 0 -- -- 99
2018-12-06 02:00:00 4 9 Sudoeste 17 Sudoeste 0 -- -- 99
2018-12-06 01:00:00 3.6 15 Sudoeste 19 Sudoeste 0 -- -- 99
2018-12-06 00:00:00 3.8 14 Sudoeste 23 Sudoeste 0 -- -- 99
2018-12-05 23:00:00 4.1 16 Sudoeste 21 Sudoeste 0 -- -- 99
2018-12-05 22:00:00 4.4 7 Sudoeste 10 Sudoeste 0 -- -- 99
2018-12-05 21:00:00 4.8 4 Sur 6 Sur 0 -- -- 99
2018-12-05 20:00:00 4.8 4 Nordeste 10 Noroeste 0 -- -- 99
2018-12-05 19:00:00 4.7 10 Noroeste 15 Noroeste 0 -- -- 99
2018-12-05 18:00:00 6.2 12 Noroeste 15 Noroeste 0 -- -- 99
2018-12-05 17:00:00 7.8 10 Sudoeste 19 Sur 0 -- -- 99
2018-12-05 16:00:00 9.6 13 Sudoeste 18 Oeste 0 -- -- 99
2018-12-05 15:00:00 7.5 14 Oeste 27 Noroeste 0 -- -- 99
2018-12-05 14:00:00 7.1 10 Oeste 14 Noroeste 0 -- -- 99
2018-12-05 13:00:00 6.8 7 Noroeste 12 Noroeste 0 -- -- 99
2018-12-05 12:00:00 6.3 0 Calma 10 Sudeste 0 -- -- 99
2018-12-05 11:00:00 5.1 0 Calma 7 Norte 0 -- -- 99
2018-12-05 10:00:00 4.4 4 Norte 6 Norte 0 -- -- 99
2018-12-05 09:00:00 4 0 Calma 0 Calma 0 -- -- 99
2018-12-05 08:00:00 3.7 0 Calma 3 Sudoeste 0 -- -- 99
2018-12-05 07:00:00 3.2 0 Calma 4 Norte 0 -- -- 99
2018-12-05 06:00:00 3.9 4 Sudeste 9 Sudeste 0 -- -- 99
2018-12-05 05:00:00 4.9 2 Sudeste 7 Sudeste 0 -- -- 99
2018-12-05 04:00:00 4.6 5 Este 9 Sudeste 0 -- -- 99
2018-12-05 03:00:00 3 0 Calma 7 Este 0 -- -- 99
2018-12-05 02:00:00 3.5 7 Sudeste 10 Sudeste 0 -- -- 99
2018-12-05 01:00:00 4.2 3 Este 8 Este 0 -- -- 99
2018-12-05 00:00:00 4.7 8 Este 9 Este 0 -- -- 99
2018-12-04 23:00:00 4.9 8 Nordeste 8 Nordeste 0 -- -- 99
2018-12-04 22:00:00 5.8 2 Noroeste 6 Noroeste 0 -- -- 99
2018-12-04 21:00:00 7.1 2 Norte 5 Norte 0 -- -- 99
2018-12-04 20:00:00 7.2 5 Norte 7 Norte 0 -- -- 99
2018-12-04 19:00:00 8.1 4 Norte 8 Noroeste 0 -- -- 99
2018-12-04 18:00:00 8.7 5 Noroeste 7 Norte 0 -- -- 99
2018-12-04 17:00:00 11.1 5 Norte 10 Norte 0 -- -- 99
2018-12-04 16:00:00 12.2 4 Noroeste 8 Norte 0 -- -- 96
2018-12-04 15:00:00 11.5 4 Norte 9 Oeste 0 -- -- 99
2018-12-04 14:00:00 11.1 0 Calma 10 Sur 0 -- -- 99
2018-12-04 13:00:00 10.4 0 Calma 9 Sudoeste 0 -- -- 99
2018-12-04 12:00:00 9.9 4 Sur 13 Sur 0 -- -- 99
2018-12-04 11:00:00 9.7 7 Sudeste 12 Sudeste 0 -- -- 99
2018-12-04 10:00:00 9.5 5 Sudeste 8 Sudeste 0 -- -- 99
2018-12-04 09:00:00 9.1 3 Este 7 Este 0 -- -- 99
2018-12-04 08:00:00 9 5 Este 7 Este 0 -- -- 99
2018-12-04 07:00:00 9.1 2 Este 7 Este 0 -- -- 99
2018-12-04 06:00:00 9.1 5 Este 10 Este 0 -- -- 99
2018-12-04 05:00:00 9 4 Este 6 Este 0.1 -- -- 99
2018-12-04 04:00:00 9 5 Este 8 Este 0 -- -- 99
2018-12-04 03:00:00 9 5 Este 8 Este 0 -- -- 99
2018-12-04 02:00:00 8.8 4 Este 4 Este 0.1 -- -- 99
2018-12-04 01:00:00 9 0 Calma 7 Oeste 0 -- -- 99
2018-12-04 00:00:00 9 4 Noroeste 7 Noroeste 0 -- -- 99
2018-12-03 23:00:00 9.1 4 Oeste 12 Sudoeste 0 -- -- 99
2018-12-03 22:00:00 9.2 2 Oeste 11 Oeste 0 -- -- 99
2018-12-03 21:00:00 9.4 5 Sudoeste 14 Sudoeste 0 -- -- 99
2018-12-03 20:00:00 9.5 9 Sudoeste 16 Sudoeste 0 -- -- 99
2018-12-03 19:00:00 9.6 7 Sudoeste 19 Oeste 0 -- -- 99
2018-12-03 18:00:00 10 11 Oeste 21 Oeste 0 -- -- 99
2018-12-03 17:00:00 10.2 15 Oeste 23 Oeste 0 -- -- 99
2018-12-03 16:00:00 10.2 18 Oeste 24 Oeste 0 -- -- 99
2018-12-03 15:00:00 9.7 14 Oeste 24 Oeste 0 -- -- 99
2018-12-03 14:00:00 10.1 13 Oeste 20 Oeste 0 -- -- 99
2018-12-03 13:00:00 8.6 8 Sur 17 Sudoeste 0 -- -- 99
2018-12-03 12:00:00 7.5 11 Sudoeste 31 Sur 0 -- -- 99
2018-12-03 11:00:00 6.8 19 Sur 24 Sur 0 -- -- 99
2018-12-03 10:00:00 5.9 11 Sur 18 Sudoeste 0 -- -- 99
2018-12-03 09:00:00 5.5 12 Sudoeste 21 Sudoeste 0 -- -- 99
2018-12-03 08:00:00 5.4 13 Sudoeste 21 Sur 0 -- -- 99
2018-12-03 07:00:00 5.5 16 Sudoeste 19 Sudoeste 0 -- -- 99
2018-12-03 06:00:00 5.4 15 Sudoeste 21 Sudoeste 0 -- -- 99
2018-12-03 05:00:00 5.5 14 Sudoeste 22 Sudoeste 0 -- -- 99
2018-12-03 04:00:00 5.5 15 Sudoeste 20 Sudoeste 0 -- -- 99
2018-12-03 03:00:00 5 18 Sudoeste 23 Oeste 0 -- -- 99
2018-12-03 02:00:00 4.1 19 Sudoeste 23 Sudoeste 0 -- -- 99
2018-12-03 01:00:00 4.4 18 Sudoeste 21 Sudoeste 0 -- -- 99
2018-12-03 00:00:00 4.7 16 Sudoeste 19 Sudoeste 0 -- -- 99
2018-12-02 23:00:00 4.2 14 Sudoeste 44 Sudoeste 0 -- -- 99
2018-12-02 22:00:00 5.2 13 Sudoeste 21 Sudoeste 0 -- -- 99
2018-12-02 21:00:00 5.6 14 Sudoeste 18 Sudoeste 0 -- -- 99
2018-12-02 20:00:00 6.3 16 Sudoeste 21 Sudoeste 0 -- -- 99
2018-12-02 19:00:00 7.4 15 Oeste 23 Oeste 0 -- -- 99
2018-12-02 18:00:00 8.3 13 Oeste 27 Oeste 0 -- -- 99
2018-12-02 17:00:00 8.6 15 Oeste 31 Oeste 0 -- -- 97
2018-12-02 16:00:00 9.1 22 Oeste 31 Oeste 0 -- -- 94
2018-12-02 15:00:00 9.3 21 Oeste 33 Oeste 0 -- -- 95
2018-12-02 14:00:00 8.6 23 Oeste 30 Oeste 0 -- -- 99
2018-12-02 13:00:00 8.1 19 Sudoeste 28 Sudoeste 0 -- -- 99
2018-12-02 12:00:00 6.5 17 Sudoeste 26 Sudoeste 0 -- -- 99
2018-12-02 11:00:00 5.5 18 Sudoeste 26 Sudoeste 0 -- -- 99
2018-12-02 10:00:00 4.6 18 Sudoeste 23 Sudoeste 0 -- -- 99
2018-12-02 09:00:00 3.9 14 Sudoeste 19 Sudoeste 0 -- -- 99
2018-12-02 08:00:00 3.1 13 Sudoeste 18 Sudoeste 0 -- -- 99
2018-12-02 07:00:00 3.4 14 Sudoeste 19 Sudoeste 0 -- -- 99
2018-12-02 06:00:00 3.5 18 Sudoeste 24 Sudoeste 0 -- -- 99
2018-12-02 05:00:00 2.8 10 Sur 24 Sudoeste 0 -- -- 99
2018-12-02 04:00:00 3 15 Sudoeste 22 Sudoeste 0 -- -- 99
2018-12-02 03:00:00 3.6 12 Sudoeste 23 Oeste 0 -- -- 99
2018-12-02 02:00:00 4.2 13 Sudoeste 21 Sudoeste 0 -- -- 99
2018-12-02 01:00:00 4.3 12 Sudoeste 25 Sudoeste 0 -- -- 99
2018-12-02 00:00:00 4.9 19 Sudoeste 27 Sudoeste 0 -- -- 99
2018-12-01 23:00:00 5.4 18 Sudoeste 25 Sudoeste 0 -- -- 99
2018-12-01 22:00:00 6.7 17 Sudoeste 30 Oeste 0 -- -- 99
2018-12-01 21:00:00 6.8 20 Oeste 31 Oeste 0 -- -- 99
2018-12-01 20:00:00 6.8 19 Oeste 31 Oeste 0 -- -- 99
2018-12-01 19:00:00 7 22 Oeste 31 Sudoeste 0 -- -- 99
2018-12-01 18:00:00 6.9 19 Oeste 26 Oeste 0 -- -- 99
2018-12-01 17:00:00 7.6 21 Oeste 29 Oeste 0 -- -- 98
2018-12-01 16:00:00 8.3 18 Oeste 27 Oeste 0 -- -- 95
2018-12-01 15:00:00 7.6 24 Oeste 30 Oeste 0 -- -- 97
2018-12-01 14:00:00 7.1 21 Sudoeste 29 Oeste 0 -- -- 99
2018-12-01 13:00:00 6.5 22 Oeste 33 Oeste 0 -- -- 99
2018-12-01 12:00:00 5.4 21 Oeste 26 Oeste 0 -- -- 99
2018-12-01 11:00:00 4.1 18 Sudoeste 24 Sudoeste 0 -- -- 99
2018-12-01 10:00:00 3.1 18 Sudoeste 23 Sudoeste 0 -- -- 99
2018-12-01 09:00:00 2.4 15 Sudoeste 21 Sudoeste 0 -- -- 99
2018-12-01 08:00:00 2.3 16 Sudoeste 21 Sudoeste 0 -- -- 99
2018-12-01 07:00:00 3.5 13 Sudoeste 23 Sudoeste 0 -- -- 99
2018-12-01 06:00:00 3.8 15 Oeste 21 Oeste 0 -- -- 99
2018-12-01 05:00:00 2.8 13 Sudoeste 17 Sudoeste 0 -- -- 99
2018-12-01 04:00:00 2.5 11 Sudoeste 17 Sudoeste 0 -- -- 99
2018-12-01 03:00:00 2.1 16 Sudoeste 19 Sudoeste 0 -- -- 99
2018-12-01 02:00:00 1.8 7 Sudoeste 16 Sudoeste 0 -- -- 99
2018-12-01 01:00:00 1 12 Sudoeste 18 Sudoeste 0 -- -- 99
2018-12-01 00:00:00 0.9 12 Sudoeste 19 Oeste 0 -- -- 99
2018-11-30 23:00:00 1.1 10 Oeste 16 Sudoeste 0 -- -- 99
2018-11-30 22:00:00 0.7 15 Sudoeste 17 Sudoeste 0 -- -- 99
2018-11-30 21:00:00 1.5 14 Sudoeste 21 Oeste 0 -- -- 99
2018-11-30 20:00:00 3 18 Oeste 19 Oeste 0 -- -- 99
2018-11-30 19:00:00 2.7 15 Oeste 19 Oeste 0 -- -- 99
2018-11-30 18:00:00 4.5 10 Oeste 17 Oeste 0 -- -- 98
2018-11-30 17:00:00 7.5 13 Oeste 20 Noroeste 0 -- -- 86
2018-11-30 16:00:00 7.6 14 Oeste 26 Noroeste 0 -- -- 88
2018-11-30 15:00:00 7 18 Noroeste 26 Noroeste 0 -- -- 95
2018-11-30 14:00:00 6.3 15 Noroeste 23 Noroeste 0 -- -- 97
2018-11-30 13:00:00 6 17 Oeste 24 Oeste 0 -- -- 99
2018-11-30 12:00:00 4.3 18 Oeste 24 Oeste 0 -- -- 99
2018-11-30 11:00:00 3.7 13 Noroeste 19 Oeste 0 -- -- 99
2018-11-30 10:00:00 3.5 8 Oeste 12 Oeste 0 -- -- 99
2018-11-30 09:00:00 2.8 0 Calma 15 Oeste 0 -- -- 99
2018-11-30 08:00:00 2.8 10 Oeste 18 Oeste 0 -- -- 99
2018-11-30 07:00:00 3.1 9 Oeste 16 Oeste 0 -- -- 99
2018-11-30 06:00:00 2.9 12 Oeste 16 Oeste 0 -- -- 99
2018-11-30 05:00:00 2.7 15 Oeste 25 Oeste 0 -- -- 99
2018-11-30 04:00:00 2.7 16 Noroeste 24 Noroeste 0 -- -- 99
2018-11-30 03:00:00 3.4 14 Oeste 22 Noroeste 0 -- -- 99
2018-11-30 02:00:00 3.9 13 Noroeste 22 Noroeste 0 -- -- 99
2018-11-30 01:00:00 4.2 13 Noroeste 19 Oeste 0 -- -- 99
2018-11-30 00:00:00 4.4 14 Oeste 19 Oeste 0 -- -- 99
2018-11-29 23:00:00 4 14 Sudoeste 23 Sudoeste 0 -- -- 99
2018-11-29 22:00:00 3.9 17 Sudoeste 22 Sudoeste 0.4 -- -- 99
2018-11-29 21:00:00 4 21 Sudoeste 29 Sudoeste 0.3 -- -- 99
2018-11-29 20:00:00 4.3 21 Sudoeste 36 Sudoeste 0 -- -- 99
2018-11-29 19:00:00 4.4 26 Sur 36 Sur 2.3 -- -- 99
2018-11-29 18:00:00 4.8 10 Oeste 18 Oeste 0.8 -- -- 99
2018-11-29 17:00:00 5.3 12 Sudoeste 26 Sur 0 -- -- 99
2018-11-29 16:00:00 5.5 14 Sur 21 Sur 0 -- -- 99
2018-11-29 15:00:00 4.5 8 Sur 16 Oeste 0 -- -- 99
2018-11-29 14:00:00 4.3 21 Oeste 46 Oeste 0 -- -- 99
2018-11-29 13:00:00 8.1 13 Sudoeste 28 Sudoeste 0 -- -- 72
2018-11-29 12:00:00 8.2 22 Sudoeste 33 Sudoeste 0 -- -- 68
2018-11-29 11:00:00 6.9 22 Sur 28 Sur 0 -- -- 70
2018-11-29 10:00:00 4 15 Sur 20 Sur 0 -- -- 76
2018-11-29 09:00:00 1 15 Sur 22 Sur 0 -- -- 86
2018-11-29 08:00:00 -0.5 7 Sur 17 Sur 0 -- -- 90
2018-11-29 07:00:00 -0.1 12 Sudoeste 19 Sur 0 -- -- 96
2018-11-29 06:00:00 -1.4 15 Sur 20 Sur 0 -- -- 99
2018-11-29 05:00:00 -0.6 16 Sur 20 Sur 0 -- -- 98
2018-11-29 04:00:00 -0.4 13 Sur 18 Sudoeste 0 -- -- 97
2018-11-29 03:00:00 -0.2 10 Sur 24 Sur 0 -- -- 95
2018-11-29 02:00:00 -0.1 12 Sur 19 Sur 0 -- -- 95
2018-11-29 01:00:00 1 9 Sur 18 Sur 0 -- -- 88
2018-11-29 00:00:00 1.8 15 Sur 19 Sur 0 -- -- 84
2018-11-28 23:00:00 2.8 11 Sur 14 Sur 0 -- -- 80
2018-11-28 22:00:00 3.4 9 Sur 14 Sur 0 -- -- 76
2018-11-28 21:00:00 6.1 8 Sur 11 Sur 0 -- -- 67
2018-11-28 14:00:00 9.9 12 Sudoeste 18 Sudoeste 0 -- -- 75
2018-11-28 13:00:00 8.1 14 Sudoeste 20 Sudoeste 0 -- -- 83
2018-11-28 12:00:00 7 15 Sudoeste 21 Sur 0 -- -- 89
2018-11-28 11:00:00 5.6 15 Sudoeste 21 Sudoeste 0 -- -- 94
2018-11-28 10:00:00 2.3 13 Sur 17 Sur 0 -- -- 99
2018-11-28 09:00:00 0.7 12 Sur 17 Sur 0 -- -- 99
2018-11-28 08:00:00 0 12 Sur 15 Sur 0 -- -- 99
2018-11-28 07:00:00 -0.3 14 Sur 17 Sur 0 -- -- 99
2018-11-28 06:00:00 -0.1 12 Sudoeste 15 Sudoeste 0 -- -- 99
2018-11-28 05:00:00 0.2 12 Sudoeste 18 Sudoeste 0 -- -- 99
2018-11-28 04:00:00 0.9 14 Sudoeste 17 Sudoeste 0 -- -- 99
2018-11-28 03:00:00 0.9 14 Sudoeste 18 Sudoeste 0 -- -- 99
2018-11-28 02:00:00 1.4 14 Sudoeste 15 Sudoeste 0 -- -- 99
2018-11-28 01:00:00 1.3 6 Sudoeste 14 Sudoeste 0 -- -- 99
2018-11-28 00:00:00 2.3 12 Sudoeste 17 Sudoeste 0 -- -- 99
2018-11-27 23:00:00 2.7 15 Sudoeste 16 Sudoeste 0 -- -- 99
2018-11-27 22:00:00 2.5 13 Sudoeste 17 Sudoeste 0 -- -- 99
2018-11-27 21:00:00 3.6 15 Sudoeste 18 Sudoeste 0 -- -- 99
2018-11-27 20:00:00 4.2 13 Sudoeste 17 Sudoeste 0 -- -- 99
2018-11-27 19:00:00 4.6 15 Sudoeste 17 Sur 0 -- -- 99
2018-11-27 18:00:00 5.5 14 Sudoeste 18 Oeste 0 -- -- 90
2018-11-27 17:00:00 6.9 12 Sudoeste 17 Sudoeste 0 -- -- 85
2018-11-27 16:00:00 7.8 11 Sudoeste 16 Oeste 0 -- -- 78
2018-11-27 15:00:00 7.7 13 Oeste 19 Sudoeste 0 -- -- 87
2018-11-27 14:00:00 7.3 13 Sudoeste 18 Oeste 0 -- -- 91
2018-11-27 13:00:00 6.4 8 Sudoeste 18 Sudoeste 0 -- -- 99
2018-11-27 12:00:00 5.6 12 Sudoeste 17 Sudoeste 0 -- -- 99
2018-11-27 11:00:00 4 9 Sudoeste 13 Sur 0 -- -- 99
2018-11-27 10:00:00 1.6 8 Sur 21 Sur 0 -- -- 99
2018-11-27 09:00:00 0 5 Sudoeste 8 Sudoeste 0 -- -- 99
2018-11-27 08:00:00 -0.4 6 Sudoeste 12 Sudoeste 0 -- -- 99
2018-11-27 07:00:00 -0.4 10 Sudoeste 18 Sudoeste 0 -- -- 99
2018-11-27 06:00:00 0.2 11 Sudoeste 17 Sudoeste 0 -- -- 99
2018-11-27 05:00:00 0.3 9 Oeste 14 Oeste 0 -- -- 99
2018-11-27 04:00:00 0.1 10 Sudoeste 13 Oeste 0 -- -- 99
2018-11-27 03:00:00 0.9 11 Oeste 13 Oeste 0 -- -- 99
2018-11-27 02:00:00 0 12 Oeste 15 Oeste 0 -- -- 99
2018-11-27 01:00:00 0 10 Oeste 14 Sudoeste 0 -- -- 99
2018-11-27 00:00:00 1.3 12 Oeste 21 Oeste 0 -- -- 99
2018-11-26 23:00:00 2 17 Oeste 22 Oeste 0 -- -- 99
2018-11-26 22:00:00 2.2 13 Noroeste 21 Noroeste 0 -- -- 99
2018-11-26 21:00:00 3.3 16 Noroeste 26 Noroeste 0 -- -- 99
2018-11-26 20:00:00 3.7 17 Oeste 26 Noroeste 0 -- -- 99
2018-11-26 19:00:00 4.6 19 Oeste 28 Noroeste 0 -- -- 94
2018-11-26 18:00:00 6.3 21 Noroeste 32 Noroeste 0 -- -- 84
2018-11-26 17:00:00 7.7 25 Noroeste 37 Noroeste 0 -- -- 75
2018-11-26 16:00:00 7.7 28 Noroeste 39 Noroeste 0 -- -- 77
2018-11-26 15:00:00 8.2 19 Noroeste 35 Noroeste 0 -- -- 77
2018-11-26 14:00:00 8.6 24 Noroeste 40 Noroeste 0 -- -- 80
2018-11-26 13:00:00 7.6 26 Noroeste 35 Noroeste 0 -- -- 89
2018-11-26 12:00:00 6.7 24 Noroeste 31 Noroeste 0 -- -- 96
2018-11-26 11:00:00 4.5 21 Noroeste 29 Noroeste 0 -- -- 99
2018-11-26 10:00:00 3.5 19 Noroeste 24 Noroeste 0 -- -- 99
2018-11-26 09:00:00 2.4 16 Noroeste 28 Oeste 0 -- -- 99
2018-11-26 08:00:00 2.7 23 Oeste 34 Oeste 0 -- -- 99
2018-11-26 07:00:00 2.8 26 Oeste 42 Oeste 0 -- -- 99
2018-11-26 06:00:00 2.6 21 Oeste 47 Oeste 0 -- -- 99
2018-11-26 05:00:00 2.7 31 Oeste 53 Noroeste 0 -- -- 99
2018-11-26 04:00:00 2.5 39 Oeste 57 Noroeste 0 -- -- 99
2018-11-26 03:00:00 3.6 26 Oeste 43 Oeste 1.6 -- -- 99
2018-11-26 02:00:00 4.1 9 Oeste 24 Noroeste 1.9 -- -- 99
2018-11-26 01:00:00 4.5 0 Calma 7 Sudeste 0.5 -- -- 99
2018-11-26 00:00:00 4.7 5 Sudeste 6 Sudeste 0.2 -- -- 99
2018-11-25 23:00:00 4.8 0 Calma 15 Oeste 0.5 -- -- 99
2018-11-25 22:00:00 5.2 12 Oeste 18 Oeste 0.9 -- -- 99
2018-11-25 21:00:00 6 11 Oeste 16 Oeste 0 -- -- 99
2018-11-25 20:00:00 6.2 10 Oeste 14 Oeste 0 -- -- 99
2018-11-25 19:00:00 5.5 8 Oeste 10 Oeste 0 -- -- 99
2018-11-25 18:00:00 5.6 7 Oeste 9 Oeste 0 -- -- 98
2018-11-25 17:00:00 7.1 10 Oeste 21 Oeste 0 -- -- 89
2018-11-25 16:00:00 8.1 13 Sudoeste 18 Sudoeste 0 -- -- 79
2018-11-25 15:00:00 8.6 13 Oeste 23 Oeste 0 -- -- 78
2018-11-25 14:00:00 8.7 15 Oeste 23 Oeste 0 -- -- 78
2018-11-25 13:00:00 8.3 16 Oeste 27 Oeste 0 -- -- 84
2018-11-25 12:00:00 7.1 9 Oeste 13 Noroeste 0 -- -- 81
2018-11-25 11:00:00 5.9 7 Noroeste 13 Noroeste 0 -- -- 93
2018-11-25 10:00:00 4.9 9 Noroeste 16 Noroeste 0 -- -- 99
2018-11-25 09:00:00 4.4 11 Noroeste 22 Noroeste 0 -- -- 99
2018-11-25 08:00:00 5.3 17 Noroeste 22 Noroeste 0 -- -- 99
2018-11-25 07:00:00 6 16 Oeste 29 Noroeste 0.1 -- -- 99
2018-11-25 06:00:00 6.7 22 Oeste 46 Oeste 0.4 -- -- 99
2018-11-25 05:00:00 7.4 28 Oeste 43 Oeste 0.4 -- -- 99
2018-11-25 04:00:00 7 28 Oeste 40 Sudoeste 0.1 -- -- 99
2018-11-25 03:00:00 6.1 29 Sudoeste 38 Sudoeste 0.4 -- -- 99
2018-11-25 02:00:00 5.3 28 Sudoeste 39 Sudoeste 0 -- -- 99
2018-11-25 01:00:00 5.1 31 Sudoeste 42 Sudoeste 0 -- -- 99
2018-11-25 00:00:00 5.1 30 Sudoeste 42 Sudoeste 0 -- -- 99
2018-11-24 23:00:00 4.7 27 Sudoeste 41 Sur 0 -- -- 99
2018-11-24 22:00:00 4.7 33 Sur 41 Sur 0.3 -- -- 99
2018-11-24 21:00:00 5.1 24 Sur 40 Sudoeste 0 -- -- 99
2018-11-24 20:00:00 5.7 29 Sudoeste 40 Sudoeste 0 -- -- 97
2018-11-24 19:00:00 6.4 24 Sudoeste 34 Sudoeste 0 -- -- 91
2018-11-24 18:00:00 6.6 19 Sudoeste 32 Sudoeste 0 -- -- 95
2018-11-24 17:00:00 7.2 26 Sudoeste 36 Sudoeste 0 -- -- 90
2018-11-24 16:00:00 8 25 Sudoeste 36 Sudoeste 0 -- -- 89
2018-11-24 15:00:00 8.6 23 Sudoeste 35 Oeste 0 -- -- 89
2018-11-24 14:00:00 7.7 27 Sudoeste 37 Sudoeste 0 -- -- 93
2018-11-24 13:00:00 7.5 26 Sudoeste 36 Sudoeste 0 -- -- 96
2018-11-24 12:00:00 6.2 25 Sudoeste 32 Sudoeste 0 -- -- 99
2018-11-24 11:00:00 5.6 21 Sudoeste 28 Sudoeste 0 -- -- 99
2018-11-24 10:00:00 4.5 21 Sudoeste 27 Sudoeste 0 -- -- 99
2018-11-24 09:00:00 3.7 19 Sudoeste 26 Sudoeste 0 -- -- 99
2018-11-24 08:00:00 3.4 19 Sudoeste 26 Sudoeste 0 -- -- 99
2018-11-24 07:00:00 3.7 15 Sudoeste 22 Sudoeste 0 -- -- 99
2018-11-24 06:00:00 3.9 17 Sudoeste 28 Sudoeste 0 -- -- 99
2018-11-24 05:00:00 4 20 Sudoeste 32 Sudoeste 0 -- -- 99
2018-11-24 04:00:00 3.9 20 Sudoeste 28 Sudoeste 0 -- -- 99
2018-11-24 03:00:00 3.6 19 Sudoeste 26 Sudoeste 0 -- -- 99
2018-11-24 02:00:00 3.7 21 Sudoeste 27 Sudoeste 0 -- -- 99
2018-11-24 01:00:00 3.8 17 Sudoeste 25 Sudoeste 0 -- -- 99
2018-11-24 00:00:00 3.6 18 Sudoeste 29 Sudoeste 0 -- -- 99
2018-11-23 23:00:00 3.6 18 Sudoeste 25 Sudoeste 0 -- -- 99
2018-11-23 22:00:00 4.3 19 Sudoeste 27 Sudoeste 0 -- -- 99
2018-11-23 21:00:00 4.6 17 Sudoeste 29 Oeste 0 -- -- 99
2018-11-23 20:00:00 3.8 13 Sudoeste 18 Sudoeste 0 -- -- 99
2018-11-23 19:00:00 3.4 15 Sudoeste 19 Sudoeste 0 -- -- 99
2018-11-23 18:00:00 4.7 16 Sudoeste 28 Oeste 0 -- -- 93
2018-11-23 17:00:00 6.3 21 Oeste 32 Oeste 0 -- -- 88
2018-11-23 16:00:00 6.6 17 Oeste 33 Oeste 0 -- -- 88
2018-11-23 15:00:00 6.3 25 Oeste 34 Oeste 0 -- -- 88
2018-11-23 14:00:00 6.3 19 Oeste 36 Oeste 0 -- -- 94
2018-11-23 13:00:00 5.3 26 Oeste 32 Oeste 0 -- -- 97
2018-11-23 12:00:00 5 25 Oeste 35 Oeste 0 -- -- 99
2018-11-23 11:00:00 5.4 23 Oeste 35 Oeste 0 -- -- 99
2018-11-23 10:00:00 4.2 21 Sudoeste 29 Oeste 0 -- -- 99
2018-11-23 09:00:00 3.1 17 Sudoeste 24 Sudoeste 0 -- -- 99
2018-11-23 08:00:00 3 17 Sudoeste 30 Sudoeste 0 -- -- 99
2018-11-23 07:00:00 3.2 16 Sudoeste 21 Sudoeste 0 -- -- 99
2018-11-23 06:00:00 3.6 14 Sudoeste 22 Sudoeste 0 -- -- 99
2018-11-23 05:00:00 3.5 15 Sudoeste 22 Sudoeste 0 -- -- 99
2018-11-23 04:00:00 3.5 12 Sur 20 Sur 1 -- -- 99
2018-11-23 03:00:00 3.8 14 Sudoeste 21 Oeste 1.3 -- -- 99
2018-11-23 02:00:00 4.1 15 Oeste 24 Oeste 2.1 -- -- 99
2018-11-23 01:00:00 4.8 16 Oeste 26 Oeste 2.5 -- -- 99
2018-11-23 00:00:00 4.9 17 Sudoeste 24 Sudoeste 0.8 -- -- 99
2018-11-22 23:00:00 4.9 12 Sudoeste 17 Sudoeste 0 -- -- 99
2018-11-22 22:00:00 4.4 11 Sudoeste 16 Sudoeste 0 -- -- 99
2018-11-22 21:00:00 4.5 10 Sudoeste 15 Sudoeste 0 -- -- 99
2018-11-22 20:00:00 5.1 13 Sudoeste 16 Sudoeste 0.2 -- -- 99
2018-11-22 19:00:00 5.5 7 Sur 19 Sur 0 -- -- 99
2018-11-22 18:00:00 6 16 Sur 24 Sudoeste 0 -- -- 99
2018-11-22 17:00:00 6.9 16 Sur 29 Sur 0 -- -- 96
2018-11-22 16:00:00 7.4 17 Sur 28 Sur 0 -- -- 94
2018-11-22 15:00:00 7.6 22 Sudoeste 33 Sudoeste 0 -- -- 93
2018-11-22 14:00:00 7.2 23 Sudoeste 36 Sudoeste 0 -- -- 99
2018-11-22 13:00:00 6.2 24 Sudoeste 30 Sudoeste 0 -- -- 99
2018-11-22 12:00:00 5.5 20 Sudoeste 26 Sudoeste 0 -- -- 99
2018-11-22 11:00:00 4.2 17 Sur 22 Sur 0.3 -- -- 99
2018-11-22 10:00:00 3.6 17 Sudoeste 22 Sudoeste 0.3 -- -- 99
2018-11-22 09:00:00 3.2 10 Sudoeste 22 Sur 0.1 -- -- 99
2018-11-22 08:00:00 3.4 17 Sur 26 Sudoeste 0 -- -- 99
2018-11-22 07:00:00 3 14 Sur 19 Sur 0.1 -- -- 99
2018-11-22 06:00:00 3.1 17 Sur 24 Sur 0 -- -- 99
2018-11-22 05:00:00 2.6 16 Sudoeste 22 Sudoeste 0 -- -- 99
2018-11-22 04:00:00 1.7 10 Sur 20 Sudoeste 0 -- -- 99
2018-11-22 03:00:00 2.9 16 Sudoeste 20 Sudoeste 0 -- -- 99
2018-11-22 02:00:00 2.1 10 Sudoeste 19 Sudoeste 0 -- -- 99
2018-11-22 01:00:00 2.5 16 Sudoeste 24 Sudoeste 0 -- -- 99
2018-11-22 00:00:00 3.4 15 Sudoeste 23 Sudoeste 0 -- -- 99
2018-11-21 23:00:00 4 17 Sudoeste 24 Sudoeste 0 -- -- 99
2018-11-21 22:00:00 3.9 18 Sudoeste 25 Sudoeste 0 -- -- 99
2018-11-21 21:00:00 3.9 10 Sudoeste 13 Sudoeste 0.1 -- -- 99
2018-11-21 20:00:00 4.2 11 Sudoeste 32 Sudoeste 0.8 -- -- 99
2018-11-21 19:00:00 4.8 13 Sudoeste 21 Oeste 0 -- -- 99
2018-11-21 18:00:00 5.8 19 Oeste 31 Oeste 0 -- -- 98
2018-11-21 17:00:00 7.2 23 Sudoeste 37 Oeste 0 -- -- 91
2018-11-21 16:00:00 8.1 28 Sudoeste 38 Sudoeste 0 -- -- 90
2018-11-21 15:00:00 7 27 Oeste 50 Oeste 0.2 -- -- 97
2018-11-21 14:00:00 7.6 28 Sudoeste 43 Oeste 0 -- -- 88
2018-11-21 13:00:00 8.4 27 Sudoeste 39 Sudoeste 0 -- -- 92
2018-11-21 12:00:00 7.2 24 Sudoeste 38 Oeste 0 -- -- 97
2018-11-21 11:00:00 5.9 27 Oeste 39 Oeste 0 -- -- 99
2018-11-21 10:00:00 5.2 26 Oeste 45 Sudoeste 0 -- -- 99
2018-11-21 09:00:00 5.2 33 Oeste 48 Oeste 0 -- -- 99
2018-11-21 08:00:00 4.9 32 Sudoeste 42 Sudoeste 0.7 -- -- 99
2018-11-21 07:00:00 4.9 21 Sudoeste 30 Sudoeste 0.1 -- -- 99
2018-11-21 06:00:00 5.2 21 Sudoeste 36 Oeste 0 -- -- 99
2018-11-21 05:00:00 5.3 28 Oeste 40 Oeste 0 -- -- 99
2018-11-21 04:00:00 5.2 27 Oeste 37 Sudoeste 0.2 -- -- 99
2018-11-21 03:00:00 5.5 28 Sudoeste 36 Sudoeste 1.3 -- -- 99
2018-11-21 02:00:00 5.7 21 Sudoeste 28 Sudoeste 0 -- -- 99
2018-11-21 01:00:00 5.6 21 Oeste 33 Oeste 0 -- -- 99
2018-11-21 00:00:00 5.4 24 Oeste 37 Oeste 0 -- -- 99
2018-11-20 23:00:00 5.6 26 Oeste 38 Oeste 0 -- -- 99
2018-11-20 22:00:00 5.5 27 Oeste 40 Oeste 0 -- -- 99
2018-11-20 21:00:00 5.3 25 Oeste 36 Oeste 0 -- -- 99
2018-11-20 20:00:00 4.8 18 Sudoeste 28 Oeste 0 -- -- 99
2018-11-20 19:00:00 5.2 19 Oeste 32 Oeste 0 -- -- 99
2018-11-20 18:00:00 6 22 Oeste 37 Oeste 0 -- -- 99
2018-11-20 17:00:00 7.1 29 Oeste 38 Sudoeste 0.1 -- -- 99
2018-11-20 16:00:00 7 24 Oeste 42 Oeste 0 -- -- 99
2018-11-20 15:00:00 6.5 31 Oeste 47 Oeste 0.9 -- -- 99
2018-11-20 14:00:00 5.8 31 Oeste 48 Oeste 3.5 -- -- 99
2018-11-20 13:00:00 5.7 25 Oeste 44 Oeste 3.5 -- -- 99
2018-11-20 12:00:00 5.2 30 Oeste 47 Noroeste 1.8 -- -- 99
2018-11-20 11:00:00 6.1 18 Sudoeste 31 Oeste 0.5 -- -- 99
2018-11-20 10:00:00 5.5 23 Oeste 38 Oeste 0 -- -- 99
2018-11-20 09:00:00 5.3 28 Oeste 37 Oeste 1.2 -- -- 99
2018-11-20 08:00:00 6.2 26 Oeste 34 Oeste 1.5 -- -- 99
2018-11-20 07:00:00 6.7 20 Oeste 27 Oeste 0 -- -- 99
2018-11-20 06:00:00 6.8 18 Oeste 31 Oeste 0 -- -- 99
2018-11-20 05:00:00 7 21 Oeste 33 Oeste 0 -- -- 99
2018-11-20 04:00:00 7 22 Oeste 30 Oeste 0 -- -- 99
2018-11-20 03:00:00 7.2 21 Oeste 30 Oeste 0 -- -- 99
2018-11-20 02:00:00 7.3 22 Oeste 28 Oeste 0.1 -- -- 99
2018-11-20 01:00:00 7.4 13 Oeste 21 Oeste 0 -- -- 99
2018-11-20 00:00:00 7 11 Oeste 13 Oeste 0 -- -- 99
2018-11-19 23:00:00 6.8 11 Oeste 16 Oeste 0 -- -- 99
2018-11-19 22:00:00 7.5 12 Oeste 19 Oeste 0 -- -- 99
2018-11-19 21:00:00 8 15 Oeste 23 Oeste 0 -- -- 99
2018-11-19 20:00:00 8.2 15 Oeste 21 Oeste 0 -- -- 99
2018-11-19 19:00:00 8.4 11 Oeste 14 Oeste -- -- -- 99
2018-11-19 18:00:00 8.8 8 Oeste 12 Oeste -- -- -- 95
2018-11-19 17:00:00 9.7 6 Noroeste 14 Norte -- -- -- 85
2018-11-19 16:00:00 10.7 5 Noroeste 15 Nordeste -- -- -- 80
2018-11-19 15:00:00 10.4 5 Norte 15 Norte -- -- -- 84
2018-11-19 14:00:00 10.6 8 Nordeste 18 Este -- -- -- 89
2018-11-19 13:00:00 9.6 8 Nordeste 18 Este -- -- -- 95
2018-11-19 12:00:00 8.4 8 Este 15 Nordeste -- -- -- 99
2018-11-19 11:00:00 7 8 Este 16 Este -- -- -- 99
2018-11-19 10:00:00 6.8 11 Este 17 Este -- -- -- 99
2018-11-19 09:00:00 5.9 9 Este 23 Este -- -- -- 99
2018-11-19 08:00:00 5.6 14 Este 24 Sudeste -- -- -- 99
2018-11-19 07:00:00 6 14 Este 50 Este -- -- -- 99
2018-11-19 06:00:00 5.8 16 Este 21 Sudeste -- -- -- 99
2018-11-19 05:00:00 5.9 17 Este 24 Sudeste -- -- -- 99
2018-11-19 04:00:00 6.4 15 Sudeste 32 Sudeste -- -- -- 99
2018-11-19 03:00:00 6.5 23 Sudeste 35 Sudeste -- -- -- 99
2018-11-19 02:00:00 6.7 23 Sudeste 31 Este -- -- -- 99
2018-11-19 01:00:00 6.6 20 Este 32 Sudeste -- -- -- 99
2018-11-19 00:00:00 6.9 24 Sudeste 35 Sudeste -- -- -- 99
2018-11-18 23:00:00 6.9 21 Este 30 Este -- -- -- 99
2018-11-18 22:00:00 7.3 18 Sudeste 29 Sudeste -- -- -- 99
2018-11-18 21:00:00 7.9 12 Este 18 Sudeste -- -- -- 99
2018-11-18 20:00:00 8.3 9 Sudeste 14 Sudeste -- -- -- 99
2018-11-18 19:00:00 9.2 11 Sudeste 19 Sudeste -- -- -- 98
2018-11-18 18:00:00 9.9 9 Sudeste 18 Sudeste -- -- -- 91
2018-11-18 17:00:00 10.8 8 Sudeste 20 Sudeste -- -- -- 85
2018-11-18 16:00:00 11.4 8 Sudeste 19 Sudeste -- -- -- 88
2018-11-18 15:00:00 11 9 Este 16 Este -- -- -- 92
2018-11-18 14:00:00 10.6 12 Este 21 Sudeste -- -- -- 96
2018-11-18 13:00:00 9.8 14 Sudeste 23 Sudeste -- -- -- 98
2018-11-18 12:00:00 8.1 14 Sudeste 19 Sudeste -- -- -- 99
2018-11-18 11:00:00 6.3 14 Este 18 Este -- -- -- 99
2018-11-18 10:00:00 5 12 Este 15 Este -- -- -- 99
2018-11-18 09:00:00 4 11 Este 15 Este -- -- -- 99
2018-11-18 08:00:00 3.4 15 Este 16 Este -- -- -- 99
2018-11-18 07:00:00 3.2 10 Este 13 Este -- -- -- 99
2018-11-18 06:00:00 3.2 9 Este 11 Este -- -- -- 99
2018-11-18 05:00:00 3.4 9 Este 12 Este -- -- -- 99
2018-11-18 04:00:00 4.3 11 Este 13 Este -- -- -- 99
2018-11-18 03:00:00 4.6 5 Sudeste 13 Este -- -- -- 99
2018-11-18 02:00:00 5.2 9 Este 13 Este -- -- -- 99
2018-11-18 01:00:00 5.8 10 Este 12 Este -- -- -- 99
2018-11-18 00:00:00 6.1 8 Este 10 Este -- -- -- 99
2018-11-17 23:00:00 7.3 7 Sudeste 13 Sudeste -- -- -- 99
2018-11-17 22:00:00 8.5 3 Este 7 Este -- -- -- 98
2018-11-17 21:00:00 9.2 5 Este 7 Este -- -- -- 91
2018-11-17 20:00:00 9.7 4 Sur 10 Sur -- -- -- 85
2018-11-17 19:00:00 11.5 5 Sur 9 Sur -- -- -- 80
2018-11-17 18:00:00 12.2 2 Sudeste 7 Sudeste -- -- -- 79
2018-11-17 17:00:00 13.4 3 Sudeste 14 Sur -- -- -- 74
2018-11-17 16:00:00 14.1 3 Sudeste 20 Sur -- -- -- 70
2018-11-17 15:00:00 15.2 11 Sur 19 Sur -- -- -- 68
2018-11-17 14:00:00 14.7 7 Sur 19 Sur -- -- -- 75
2018-11-17 13:00:00 14 13 Sur 21 Sur -- -- -- 80
2018-11-17 12:00:00 11.8 8 Sudeste 18 Sudeste -- -- -- 95
2018-11-17 11:00:00 9 14 Sudeste 24 Sudeste -- -- -- 99
2018-11-17 10:00:00 7.5 17 Este 26 Este -- -- -- 99
2018-11-17 09:00:00 6.6 14 Este 19 Este -- -- -- 99
2018-11-17 08:00:00 5.4 15 Este 18 Este -- -- -- 99
2018-11-17 07:00:00 6.1 14 Sudeste 20 Sudeste -- -- -- 99
2018-11-17 06:00:00 6.3 13 Este 19 Sudeste -- -- -- 99
2018-11-17 05:00:00 6.7 15 Sudeste 19 Este -- -- -- 99
2018-11-17 04:00:00 6.9 15 Este 21 Sudeste -- -- -- 99
2018-11-17 03:00:00 7.7 16 Este 21 Sudeste -- -- -- 99
2018-11-17 02:00:00 7.5 13 Este 18 Sudeste -- -- -- 99
2018-11-17 01:00:00 7.5 13 Sudeste 17 Sudeste -- -- -- 99
2018-11-17 00:00:00 7.4 15 Sudeste 19 Sudeste -- -- -- 99
2018-11-16 23:00:00 7.6 13 Este 15 Este -- -- -- 99
2018-11-16 22:00:00 9.3 4 Sudeste 13 Sudeste -- -- -- 99
2018-11-16 21:00:00 10.2 4 Sudeste 12 Sudeste -- -- -- 99
2018-11-16 20:00:00 10.2 4 Sudeste 14 Sudeste -- -- -- 99
2018-11-16 19:00:00 11.2 5 Sudeste 12 Sudeste -- -- -- 98
2018-11-16 18:00:00 11.8 3 Sudeste 15 Sudeste -- -- -- 97
2018-11-16 17:00:00 13.8 8 Sur 17 Sur -- -- -- 89
2018-11-16 16:00:00 13.2 6 Sudeste 17 Sur -- -- -- 95
2018-11-16 15:00:00 13.9 4 Sur 17 Sur -- -- -- 85
2018-11-16 14:00:00 13.3 3 Sudeste 16 Este -- -- -- 89
2018-11-16 13:00:00 12.5 9 Este 18 Este -- -- -- 95
2018-11-16 12:00:00 10.5 13 Este 18 Este -- -- -- 99
2018-11-16 11:00:00 9 14 Este 20 Sudeste -- -- -- 99
2018-11-16 10:00:00 8 16 Sudeste 24 Este -- -- -- 99
2018-11-16 09:00:00 7 18 Sudeste 22 Este -- -- -- 99
2018-11-16 08:00:00 6.3 16 Sudeste 19 Sudeste -- -- -- 99
2018-11-16 07:00:00 5.6 13 Este 18 Este -- -- -- 99
2018-11-16 06:00:00 6.4 13 Este 17 Este -- -- -- 99
2018-11-16 05:00:00 6.5 13 Este 15 Este -- -- -- 99
2018-11-16 04:00:00 7 10 Este 24 Sudeste -- -- -- 99
2018-11-16 03:00:00 8 20 Sudeste 27 Sudeste -- -- -- 99
2018-11-16 02:00:00 7.8 19 Este 26 Este -- -- -- 99
2018-11-16 01:00:00 8.3 17 Sudeste 20 Sudeste -- -- -- 99
2018-11-16 00:00:00 8 15 Este 19 Este -- -- -- 99
2018-11-15 23:00:00 7.7 12 Este 14 Este -- -- -- 99
2018-11-15 22:00:00 7.8 9 Nordeste 11 Este -- -- -- 99
2018-11-15 21:00:00 8.7 8 Este 10 Sudeste -- -- -- 98
2018-11-15 20:00:00 9.8 8 Sudeste 13 Sudeste -- -- -- 95
2018-11-15 19:00:00 11.1 10 Sudeste 13 Sudeste -- -- -- 93
2018-11-15 18:00:00 12.6 6 Este 9 Este -- -- -- 87
2018-11-15 17:00:00 14.3 5 Este 11 Sudeste -- -- -- 78
2018-11-15 16:00:00 14.8 9 Sudeste 19 Este -- -- -- 75
2018-11-15 15:00:00 15.4 11 Este 18 Este -- -- -- 72
2018-11-15 14:00:00 14.8 9 Este 14 Este -- -- -- 77
2018-11-15 13:00:00 13.5 8 Este 14 Sudeste -- -- -- 85
2018-11-15 12:00:00 11.1 10 Este 14 Este -- -- -- 99
2018-11-15 11:00:00 10.1 10 Este 16 Este -- -- -- 99
2018-11-15 10:00:00 9.5 12 Este 17 Este -- -- -- 99
2018-11-15 09:00:00 8 10 Sudeste 14 Sudeste -- -- -- 99
2018-11-15 08:00:00 6.9 13 Sudeste 15 Sudeste -- -- -- 99
2018-11-15 07:00:00 7.1 14 Sudeste 19 Sudeste -- -- -- 99
2018-11-15 06:00:00 6.5 11 Este 15 Este -- -- -- 99
2018-11-15 05:00:00 7.5 10 Sudeste 15 Sudeste -- -- -- 99
2018-11-15 04:00:00 7.3 10 Sudeste 16 Sudeste -- -- -- 99
2018-11-15 03:00:00 7.1 13 Sudeste 15 Sudeste -- -- -- 99
2018-11-15 02:00:00 7.4 13 Sudeste 17 Este -- -- -- 99
2018-11-15 01:00:00 6.7 13 Este 17 Este -- -- -- 99
2018-11-15 00:00:00 7 12 Este 17 Este -- -- -- 99
2018-11-14 23:00:00 7 15 Este 16 Este -- -- -- 99
2018-11-14 22:00:00 7.5 10 Este 12 Este -- -- -- 99
2018-11-14 21:00:00 8.1 10 Este 14 Este -- -- -- 99
2018-11-14 20:00:00 8.9 8 Este 13 Este -- -- -- 99
2018-11-14 19:00:00 9 10 Este 13 Nordeste -- -- -- 99
2018-11-14 18:00:00 9.4 7 Nordeste 9 Nordeste -- -- -- 99
2018-11-14 17:00:00 12 4 Nordeste 9 Nordeste -- -- -- 93
2018-11-14 16:00:00 11.2 8 Este 10 Este -- -- -- 98
2018-11-14 15:00:00 10.3 5 Nordeste 11 Nordeste -- -- -- 99
2018-11-14 14:00:00 9.3 4 Norte 8 Nordeste -- -- -- 99
2018-11-14 13:00:00 8.3 4 Sudeste 11 Sudeste -- -- -- 99
2018-11-14 12:00:00 7.9 5 Este 15 Este -- -- -- 99
2018-11-14 11:00:00 8.1 12 Este 21 Sudeste -- -- -- 99
2018-11-14 10:00:00 7.8 12 Sudeste 18 Sudeste -- -- -- 99
2018-11-14 09:00:00 7.3 13 Este 22 Este -- -- -- 99
2018-11-14 08:00:00 6.8 14 Este 22 Este -- -- -- 99
2018-11-14 07:00:00 6.8 11 Este 22 Sudeste -- -- -- 99
2018-11-14 06:00:00 6.5 16 Este 22 Sudeste -- -- -- 99
2018-11-14 05:00:00 6.2 17 Este 24 Este -- -- -- 99
2018-11-14 04:00:00 5.7 12 Este 18 Sudeste -- -- -- 99
2018-11-14 03:00:00 5.5 13 Sudeste 16 Sudeste -- -- -- 99
2018-11-14 02:00:00 5.6 15 Sudeste 22 Sudeste -- -- -- 99
2018-11-14 01:00:00 6.4 17 Sudeste 22 Este -- -- -- 99
2018-11-14 00:00:00 6.7 16 Este 21 Este -- -- -- 99
2018-11-13 23:00:00 6.6 12 Este 14 Este -- -- -- 99
2018-11-13 22:00:00 6.6 9 Este 10 Este -- -- -- 99
2018-11-13 21:00:00 7.1 8 Este 10 Este -- -- -- 99
2018-11-13 20:00:00 8.1 8 Este 10 Este -- -- -- 99
2018-11-13 19:00:00 8.9 5 Este 6 Este -- -- -- 99
2018-11-13 18:00:00 11.1 4 Sudeste 13 Este -- -- -- 95
2018-11-13 17:00:00 13 8 Este 12 Este -- -- -- 89
2018-11-13 16:00:00 12.9 8 Este 13 Este -- -- -- 89
2018-11-13 15:00:00 12.3 10 Nordeste 21 Sudeste -- -- -- 91
2018-11-13 14:00:00 11.4 13 Este 25 Este -- -- -- 95
2018-11-13 13:00:00 10.7 17 Este 22 Este -- -- -- 99
2018-11-13 12:00:00 9.6 14 Este 21 Este -- -- -- 99
2018-11-13 11:00:00 7.6 13 Nordeste 19 Nordeste -- -- -- 99
2018-11-13 10:00:00 7.3 13 Este 23 Este -- -- -- 99
2018-11-13 09:00:00 7.3 16 Este 57 Este -- -- -- 99
2018-11-13 08:00:00 7.1 16 Este 22 Nordeste 0 -- -- 99
2018-11-13 07:00:00 7.2 15 Este 19 Este 0 -- -- 99
2018-11-13 06:00:00 7.2 12 Este 18 Este 0 -- -- 99
2018-11-13 05:00:00 7 11 Nordeste 17 Nordeste 0 -- -- 99
2018-11-13 04:00:00 7 9 Este 17 Nordeste 0 -- -- 99
2018-11-13 03:00:00 7.2 11 Nordeste 19 Este 0 -- -- 99
2018-11-13 02:00:00 7.1 10 Nordeste 15 Nordeste 0 -- -- 99
2018-11-13 01:00:00 6.7 5 Norte 8 Norte 0 -- -- 99
2018-11-13 00:00:00 6.4 4 Este 11 Este 0 -- -- 99
2018-11-12 23:00:00 6.9 6 Nordeste 12 Norte 0 -- -- 99
2018-11-12 22:00:00 7.4 0 Calma 6 Noroeste 0 -- -- 99
2018-11-12 21:00:00 7.4 3 Nordeste 5 Noroeste 0 -- -- 99
2018-11-12 20:00:00 7.6 0 Calma 6 Noroeste 0 -- -- 99
2018-11-12 19:00:00 7.3 5 Este 8 Este 0 -- -- 99
2018-11-12 18:00:00 7.7 5 Norte 13 Noroeste 0 -- -- 99
2018-11-12 17:00:00 8 9 Noroeste 12 Noroeste 0 -- -- 99
2018-11-12 16:00:00 8 8 Norte 11 Norte 0 -- -- 99
2018-11-12 15:00:00 8.1 8 Norte 11 Norte 0 -- -- 99
2018-11-12 14:00:00 8.6 5 Norte 9 Noroeste 0 -- -- 99
2018-11-12 13:00:00 8.7 0 Calma 10 Sur 0 -- -- 99
2018-11-12 12:00:00 8.4 5 Sur 11 Sudeste 0 -- -- 99
2018-11-12 11:00:00 7.6 6 Sudeste 13 Sur 0 -- -- 99
2018-11-12 10:00:00 7.1 6 Sur 9 Sudoeste 0 -- -- 99
2018-11-12 09:00:00 6.8 4 Sudoeste 13 Sudoeste 0 -- -- 99
2018-11-12 08:00:00 6.6 6 Sudoeste 19 Oeste 0 -- -- 99
2018-11-12 07:00:00 6.6 10 Oeste 19 Sudoeste 0 -- -- 99
2018-11-12 06:00:00 6.6 16 Sudoeste 21 Sudoeste 0 -- -- 99
2018-11-12 05:00:00 7 14 Sudoeste 22 Sur 0 -- -- 99
2018-11-12 04:00:00 7 12 Sur 21 Sur 0 -- -- 99
2018-11-12 03:00:00 6.9 15 Sur 23 Sur 0 -- -- 99
2018-11-12 02:00:00 6.9 9 Sudeste 27 Sudeste 0 -- -- 99
2018-11-12 01:00:00 6.8 14 Sudeste 18 Sudeste 0 -- -- 99
2018-11-12 00:00:00 6.9 5 Oeste 12 Oeste 0 -- -- 99
2018-11-11 23:00:00 6.8 7 Noroeste 15 Oeste 0 -- -- 99
2018-11-11 22:00:00 7.1 6 Norte 11 Noroeste 0 -- -- 99
2018-11-11 21:00:00 7.1 5 Nordeste 15 Noroeste 0 -- -- 99
2018-11-11 20:00:00 7.3 7 Norte 21 Noroeste 0 -- -- 99
2018-11-11 19:00:00 7.9 10 Oeste 21 Oeste 0 -- -- 99
2018-11-11 18:00:00 8.6 11 Oeste 22 Sudoeste 0 -- -- 99
2018-11-11 17:00:00 9.3 23 Oeste 41 Sudoeste 0 -- -- 99
2018-11-11 16:00:00 11.8 24 Sur 39 Sur 0 -- -- 99
2018-11-11 15:00:00 11.1 30 Sur 41 Sur 0 -- -- 99
2018-11-11 14:00:00 10.5 23 Sur 39 Sudoeste 0 -- -- 99
2018-11-11 13:00:00 10.9 32 Sudoeste 42 Sudoeste 0 -- -- 99
2018-11-11 12:00:00 11.4 27 Sudoeste 39 Sur 0 -- -- 99
2018-11-11 11:00:00 11.2 23 Sur 34 Sudoeste 0 -- -- 99
2018-11-11 10:00:00 10.1 25 Sudoeste 33 Sudoeste 0 -- -- 99
2018-11-11 09:00:00 9.1 18 Sur 25 Sur 0 -- -- 99
2018-11-11 08:00:00 8.7 16 Sur 27 Sudoeste 0 -- -- 99
2018-11-11 07:00:00 8.7 20 Sudoeste 40 Sudoeste 0 -- -- 99
2018-11-11 06:00:00 8.5 29 Sudoeste 39 Sudoeste 0 -- -- 99
2018-11-11 05:00:00 8.2 21 Sudoeste 33 Sudoeste 0 -- -- 99
2018-11-11 04:00:00 7.7 18 Sudoeste 26 Sudoeste 0 -- -- 99
2018-11-11 03:00:00 7.1 20 Sudoeste 25 Sudoeste 0 -- -- 99
2018-11-11 02:00:00 7.6 17 Sudoeste 24 Sudoeste 0 -- -- 99
2018-11-11 01:00:00 8.4 17 Oeste 41 Oeste 0 -- -- 99
2018-11-11 00:00:00 8.2 24 Sudoeste 39 Sudoeste 0 -- -- 99
2018-11-10 23:00:00 7.7 27 Sudoeste 37 Sudoeste 0 -- -- 99
2018-11-10 22:00:00 8.6 28 Sudoeste 40 Sudoeste 0 -- -- 99
2018-11-10 21:00:00 9.8 25 Oeste 39 Oeste 0 -- -- 99
2018-11-10 20:00:00 9.9 28 Oeste 43 Oeste 0 -- -- 99
2018-11-10 19:00:00 10.2 24 Oeste 33 Oeste 0 -- -- 99
2018-11-10 18:00:00 10.2 23 Sudoeste 51 Oeste 0 -- -- 97
2018-11-10 17:00:00 11.5 38 Oeste 58 Oeste 0 -- -- 91
2018-11-10 16:00:00 12.1 49 Oeste 66 Oeste 0 -- -- 95
2018-11-10 15:00:00 11.7 40 Oeste 55 Oeste 0 -- -- 99
2018-11-10 14:00:00 10.6 32 Sudoeste 50 Oeste 0 -- -- 99
2018-11-10 13:00:00 9.7 39 Sudoeste 50 Oeste 0 -- -- 99
2018-11-10 12:00:00 9.7 25 Sudoeste 36 Sudoeste 0 -- -- 99
2018-11-10 11:00:00 10 30 Sudoeste 45 Sudoeste 0 -- -- 99
2018-11-10 10:00:00 10 31 Sudoeste 52 Sudoeste 0 -- -- 99
2018-11-10 09:00:00 9.2 40 Sudoeste 53 Sudoeste 0 -- -- 99
2018-11-10 08:00:00 9 42 Sudoeste 59 Sudoeste 0 -- -- 99
2018-11-10 07:00:00 9.2 42 Sudoeste 61 Sudoeste 0 -- -- 99
2018-11-10 06:00:00 8.7 40 Sudoeste 53 Sudoeste 0 -- -- 99
2018-11-10 05:00:00 8.5 40 Sudoeste 56 Sudoeste 0 -- -- 99
2018-11-10 04:00:00 8.1 35 Sudoeste 50 Sudoeste 0 -- -- 99
2018-11-10 03:00:00 8 38 Sudoeste 50 Sudoeste 0 -- -- 99
2018-11-10 02:00:00 7.7 36 Sudoeste 48 Sudoeste 0 -- -- 99
2018-11-10 01:00:00 7.8 32 Sudoeste 50 Sudoeste 0 -- -- 99
2018-11-10 00:00:00 7.3 28 Sudoeste 43 Sudoeste 0 -- -- 99
2018-11-09 23:00:00 7.2 30 Sudoeste 44 Sudoeste 0 -- -- 99
2018-11-09 22:00:00 6.8 30 Sudoeste 39 Sudoeste 0 -- -- 99
2018-11-09 21:00:00 6.4 28 Sudoeste 38 Sudoeste 0 -- -- 99
2018-11-09 20:00:00 6.6 27 Sudoeste 39 Sudoeste 0 -- -- 99
2018-11-09 19:00:00 6.5 21 Sudoeste 37 Sudoeste 0 -- -- 99
2018-11-09 18:00:00 6.1 24 Sudoeste 36 Sudoeste 0 -- -- 99
2018-11-09 17:00:00 6.4 20 Sudoeste 36 Sudoeste 0 -- -- 99
2018-11-09 16:00:00 7 29 Oeste 42 Oeste 0 -- -- 97
2018-11-09 15:00:00 7.6 30 Oeste 39 Sudoeste 0 -- -- 89
2018-11-09 14:00:00 7.5 30 Oeste 41 Oeste 0 -- -- 88
2018-11-09 13:00:00 7.3 31 Oeste 43 Oeste 0 -- -- 88
2018-11-09 12:00:00 7.2 31 Oeste 41 Oeste 0 -- -- 96
2018-11-09 11:00:00 5.2 22 Oeste 33 Oeste 0 -- -- 99
2018-11-09 10:00:00 3.9 24 Oeste 37 Oeste 0 -- -- 99
2018-11-09 09:00:00 2.6 26 Oeste 37 Oeste 0 -- -- 99
2018-11-09 08:00:00 2 22 Oeste 30 Oeste 0 -- -- 99
2018-11-09 07:00:00 2.2 23 Oeste 37 Oeste 0 -- -- 99
2018-11-09 06:00:00 2.2 23 Oeste 39 Oeste 0 -- -- 99
2018-11-09 05:00:00 2.6 26 Oeste 36 Oeste 0 -- -- 99
2018-11-09 04:00:00 2.9 25 Oeste 38 Oeste 0 -- -- 99
2018-11-09 03:00:00 3.1 24 Oeste 38 Oeste 0 -- -- 99
2018-11-09 02:00:00 3 26 Oeste 37 Oeste 0 -- -- 99
2018-11-09 01:00:00 3.3 24 Oeste 35 Oeste 0 -- -- 99
2018-11-09 00:00:00 3.9 26 Oeste 38 Oeste 0 -- -- 99